Time;durP1;ratioP1;P1;durP2;ratioP2;P2;SDS_P1;SDS_P2;PMS_P1;PMS_P2;Temp;Humidity;BMP_temperature;BMP_pressure;BME280_temperature;BME280_humidity;BME280_pressure;Samples;Min_cycle;Max_cycle;Signal;HPM_P1;HPM_P2
2022/04/13 00:00:35;;;;;;;15.85;6.93;;;;;;;16.79;55.07;101279.03;4923601;28;20062;-59
2022/04/13 00:03:00;;;;;;;17.33;7.13;;;;;;;16.76;55.09;101271.16;4912885;28;20363;-59
2022/04/13 00:05:27;;;;;;;12.90;6.32;;;;;;;16.74;55.18;101270.28;4924933;28;20544;-60
2022/04/13 00:07:54;;;;;;;14.57;6.90;;;;;;;16.72;55.33;101265.88;4913191;28;20055;-58
2022/04/13 00:10:19;;;;;;;13.20;6.45;;;;;;;16.73;55.26;101271.16;4914688;28;20507;-59
2022/04/13 00:12:45;;;;;;;11.80;6.40;;;;;;;16.74;55.03;101270.28;4915600;28;20082;-60
2022/04/13 00:15:10;;;;;;;15.77;6.68;;;;;;;16.69;55.60;101268.56;4926643;28;20175;-58
2022/04/13 00:17:36;;;;;;;15.70;6.63;;;;;;;16.60;55.78;101267.72;4923492;28;20051;-60
2022/04/13 00:20:06;;;;;;;12.43;6.40;;;;;;;16.52;55.92;101260.72;4922220;28;20287;-59
2022/04/13 00:22:31;;;;;;;16.08;7.30;;;;;;;16.42;56.35;101259.88;4918477;28;20043;-58
2022/04/13 00:24:57;;;;;;;19.23;6.70;;;;;;;16.40;56.36;101266.91;4921620;28;20039;-59
2022/04/13 00:27:22;;;;;;;15.15;6.80;;;;;;;16.29;56.65;101267.81;4919453;28;20067;-60
2022/04/13 00:29:48;;;;;;;12.30;7.03;;;;;;;16.21;56.82;101271.38;4927916;28;20758;-61
2022/04/13 00:32:13;;;;;;;13.20;6.80;;;;;;;16.15;57.08;101266.13;4922228;28;20047;-59
2022/04/13 00:34:39;;;;;;;12.57;6.50;;;;;;;16.11;57.12;101268.75;4913292;28;20039;-61
2022/04/13 00:37:05;;;;;;;16.05;7.57;;;;;;;16.06;57.77;101273.16;4921405;28;20086;-59
2022/04/13 00:39:30;;;;;;;13.68;7.00;;;;;;;16.02;57.94;101274.06;4921491;28;20062;-59
2022/04/13 00:42:03;;;;;;;13.02;6.95;;;;;;;16.06;58.08;101281.03;4915434;28;20031;-59
2022/04/13 00:44:29;;;;;;;18.00;7.38;;;;;;;16.10;58.04;101277.53;4921493;28;20439;-59
2022/04/13 00:46:55;;;;;;;18.45;7.90;;;;;;;16.21;57.98;101286.28;4917281;28;20486;-59
2022/04/13 00:49:22;;;;;;;14.75;7.13;;;;;;;16.26;57.59;101281.88;4893481;28;20047;-58
2022/04/13 00:51:48;;;;;;;17.55;7.80;;;;;;;16.25;57.91;101282.75;4914549;28;20689;-58
2022/04/13 00:54:16;;;;;;;18.73;8.10;;;;;;;16.23;57.97;101287.13;4920636;28;20118;-60
2022/04/13 00:56:43;;;;;;;15.90;8.25;;;;;;;16.23;58.17;101290.63;4914588;28;20046;-60
2022/04/13 00:59:12;;;;;;;15.98;8.02;;;;;;;16.28;57.96;101293.28;4924092;28;20693;-60
2022/04/13 01:01:39;;;;;;;15.85;8.23;;;;;;;16.28;58.15;101292.41;4927220;28;20355;-59
2022/04/13 01:04:16;;;;;;;15.82;7.53;;;;;;;16.28;57.96;101292.41;4909097;28;20055;-59
2022/04/13 01:06:43;;;;;;;18.85;8.38;;;;;;;16.35;57.82;101288.84;4916339;28;20245;-60
2022/04/13 01:09:10;;;;;;;15.55;7.55;;;;;;;16.32;57.85;101291.50;4924747;28;20050;-60
2022/04/13 01:11:35;;;;;;;17.33;8.65;;;;;;;16.31;58.00;101301.13;4915627;28;20320;-60
2022/04/13 01:14:01;;;;;;;18.20;8.57;;;;;;;16.27;58.46;101295.91;4925986;28;20039;-59
2022/04/13 01:16:26;;;;;;;12.57;7.47;;;;;;;16.25;58.27;101298.53;4941173;28;20043;-59
2022/04/13 01:18:54;;;;;;;14.45;8.38;;;;;;;16.22;58.53;101296.78;4913614;28;21210;-59
2022/04/13 01:21:37;;;;;;;18.42;8.18;;;;;;;16.14;58.50;101298.56;4937838;28;20648;-58
2022/04/13 01:24:03;;;;;;;18.80;8.57;;;;;;;16.08;58.92;101293.31;4921962;28;20057;-59
2022/04/13 01:26:28;;;;;;;19.65;8.45;;;;;;;16.02;59.33;101282.81;4911913;28;20039;-59
2022/04/13 01:28:53;;;;;;;16.23;8.43;;;;;;;16.01;59.44;101282.81;4914672;28;20070;-59
2022/04/13 01:31:19;;;;;;;16.20;8.63;;;;;;;15.99;59.95;101295.97;4921457;28;20167;-60
2022/04/13 01:33:44;;;;;;;19.70;8.63;;;;;;;16.00;59.70;101295.09;4919566;28;20051;-60
2022/04/13 01:36:10;;;;;;;16.55;9.00;;;;;;;16.00;60.06;101300.34;4918602;28;20598;-58
2022/04/13 01:38:35;;;;;;;21.48;8.98;;;;;;;15.99;60.16;101303.84;4917900;28;20122;-58
2022/04/13 01:41:01;;;;;;;19.27;8.70;;;;;;;15.99;60.02;101311.75;4915914;28;20108;-59
2022/04/13 01:43:26;;;;;;;16.33;8.88;;;;;;;16.01;60.19;101315.25;4922485;28;20238;-60
2022/04/13 01:45:51;;;;;;;18.13;8.00;;;;;;;16.04;60.18;101312.59;4916869;28;20031;-58
2022/04/13 01:48:18;;;;;;;17.42;9.25;;;;;;;16.04;60.23;101317.84;4918735;28;20054;-59
2022/04/13 01:50:44;;;;;;;18.23;9.18;;;;;;;16.05;60.32;101313.47;4910646;28;20043;-59
2022/04/13 01:53:10;;;;;;;16.92;9.15;;;;;;;16.05;60.43;101311.72;4921805;28;20086;-60
2022/04/13 01:55:35;;;;;;;22.10;9.60;;;;;;;16.04;60.58;101317.84;4919683;28;20104;-60
2022/04/13 01:58:00;;;;;;;18.27;9.57;;;;;;;16.05;60.51;101324.00;4924438;28;20106;-59
2022/04/13 02:00:26;;;;;;;18.02;9.82;;;;;;;15.99;60.76;101309.09;4909882;28;20058;-58
2022/04/13 02:02:52;;;;;;;16.88;9.23;;;;;;;15.96;60.78;101301.25;4916719;28;20043;-58
2022/04/13 02:05:17;;;;;;;16.92;9.48;;;;;;;15.93;60.94;101309.13;4907985;28;20074;-58
2022/04/13 02:07:43;;;;;;;17.83;9.45;;;;;;;15.89;61.06;101317.03;4916951;28;20184;-58
2022/04/13 02:10:09;;;;;;;19.02;9.52;;;;;;;15.83;61.06;101317.91;4923718;28;20240;-59
2022/04/13 02:12:38;;;;;;;17.50;10.02;;;;;;;15.87;61.39;101322.28;4919470;28;20051;-59
2022/04/13 02:15:05;;;;;;;21.50;9.45;;;;;;;15.86;61.60;101317.88;4922298;28;20061;-60
2022/04/13 02:17:31;;;;;;;18.85;9.82;;;;;;;15.87;61.99;101324.03;4923078;28;20106;-60
2022/04/13 02:19:56;;;;;;;20.17;9.70;;;;;;;15.89;62.08;101332.81;4919526;28;20352;-60
2022/04/13 02:22:21;;;;;;;19.45;9.63;;;;;;;15.95;61.83;101324.91;4915778;28;20046;-58
2022/04/13 02:24:48;;;;;;;21.30;10.55;;;;;;;15.97;61.84;101323.16;4910965;28;20043;-57
2022/04/13 02:27:14;;;;;;;22.08;10.57;;;;;;;16.00;61.75;101333.66;4916366;28;20054;-59
2022/04/13 02:29:40;;;;;;;20.77;11.13;;;;;;;16.00;61.66;101336.28;4917897;28;21307;-59
2022/04/13 02:32:06;;;;;;;19.65;10.75;;;;;;;15.98;61.77;101338.06;4921572;28;20073;-59
2022/04/13 02:34:32;;;;;;;20.60;10.88;;;;;;;15.97;61.65;101334.56;4917878;28;20622;-58
2022/04/13 02:36:58;;;;;;;19.30;11.40;;;;;;;15.91;62.04;101331.06;4909410;28;20169;-59
2022/04/13 02:39:23;;;;;;;23.08;11.88;;;;;;;15.88;62.21;101329.28;4920208;28;20050;-60
2022/04/13 02:41:49;;;;;;;20.55;11.30;;;;;;;15.84;62.31;101335.44;4922908;28;20477;-59
2022/04/13 02:44:14;;;;;;;18.00;11.00;;;;;;;15.80;62.23;101337.19;4917540;28;20054;-60
2022/04/13 02:46:41;;;;;;;17.27;10.02;;;;;;;15.79;62.16;101329.31;4911848;28;20145;-60
2022/04/13 02:49:06;;;;;;;17.60;9.88;;;;;;;15.78;62.22;101341.59;4923869;28;20534;-59
2022/04/13 02:51:32;;;;;;;23.50;10.80;;;;;;;15.75;62.40;101343.31;4911818;28;20100;-59
2022/04/13 02:53:57;;;;;;;18.92;10.02;;;;;;;15.69;62.58;101324.91;4917146;28;20216;-60
2022/04/13 02:56:22;;;;;;;18.58;9.23;;;;;;;15.67;62.65;101332.81;4916286;28;20036;-60
2022/04/13 02:58:47;;;;;;;18.85;10.43;;;;;;;15.66;62.71;101336.31;4918298;28;20078;-58
2022/04/13 03:01:14;;;;;;;23.42;9.90;;;;;;;15.65;62.86;101336.31;4916573;28;20047;-59
2022/04/13 03:03:39;;;;;;;19.58;10.18;;;;;;;15.58;63.16;101335.44;4902146;28;20575;-59
2022/04/13 03:06:05;;;;;;;19.35;9.43;;;;;;;15.64;63.02;101339.81;4922286;28;20102;-57
2022/04/13 03:08:30;;;;;;;17.85;10.10;;;;;;;15.62;63.39;101349.44;4915223;28;20198;-59
2022/04/13 03:10:56;;;;;;;18.65;10.02;;;;;;;15.63;63.30;101353.84;4908588;28;20050;-59
2022/04/13 03:13:21;;;;;;;18.75;10.50;;;;;;;15.62;63.70;101355.56;4919711;28;20460;-60
2022/04/13 03:15:47;;;;;;;17.63;9.68;;;;;;;15.66;63.48;101352.09;4922553;28;20086;-59
2022/04/13 03:18:12;;;;;;;18.73;10.68;;;;;;;15.61;63.52;101371.38;4921927;28;20769;-60
2022/04/13 03:20:37;;;;;;;19.20;10.23;;;;;;;15.67;63.30;101364.38;4923819;28;20071;-58
2022/04/13 03:23:03;;;;;;;15.52;10.38;;;;;;;15.72;63.22;101367.00;4916357;28;20103;-59
2022/04/13 03:25:29;;;;;;;17.92;10.55;;;;;;;15.72;63.21;101367.88;4912843;28;20051;-59
2022/04/13 03:27:54;;;;;;;16.13;10.13;;;;;;;15.74;63.23;101373.09;4919097;28;20067;-59
2022/04/13 03:30:22;;;;;;;18.17;10.02;;;;;;;15.74;62.97;101378.34;4923931;28;20054;-60
2022/04/13 03:32:48;;;;;;;20.50;10.85;;;;;;;15.71;63.34;101383.63;4907349;28;20051;-59
2022/04/13 03:35:13;;;;;;;22.35;10.50;;;;;;;15.69;63.30;101381.00;4926977;28;20631;-59
2022/04/13 03:37:40;;;;;;;18.92;10.27;;;;;;;15.71;63.40;101381.00;4919585;28;20503;-59
2022/04/13 03:40:11;;;;;;;23.63;10.38;;;;;;;15.66;63.62;101386.28;4917510;28;20557;-58
2022/04/13 03:42:39;;;;;;;16.02;10.13;;;;;;;15.71;63.37;101387.13;4916527;28;20070;-62
2022/04/13 03:45:05;;;;;;;20.80;10.50;;;;;;;15.71;63.45;101383.63;4922259;28;20047;-59
2022/04/13 03:47:30;;;;;;;19.55;10.40;;;;;;;15.72;63.35;101388.03;4923081;28;20101;-58
2022/04/13 03:49:56;;;;;;;21.23;10.23;;;;;;;15.76;63.05;101395.91;4915531;28;20044;-59
2022/04/13 03:52:22;;;;;;;23.05;10.52;;;;;;;15.73;63.34;101397.66;4919579;28;20078;-59
2022/04/13 03:54:47;;;;;;;17.08;10.40;;;;;;;15.68;63.32;101392.38;4905065;28;20053;-58
2022/04/13 03:57:13;;;;;;;19.50;11.50;;;;;;;15.65;63.72;101387.13;4918078;28;20090;-59
2022/04/13 03:59:38;;;;;;;20.13;11.05;;;;;;;15.62;63.72;101387.13;4916076;28;20043;-58
2022/04/13 04:02:04;;;;;;;21.65;11.88;;;;;;;15.62;63.98;101392.38;4924732;28;20078;-58
2022/04/13 04:04:29;;;;;;;19.98;11.35;;;;;;;15.62;63.84;101399.38;4923640;28;20416;-57
2022/04/13 04:06:54;;;;;;;20.88;11.68;;;;;;;15.60;63.61;101402.03;4918820;28;20648;-59
2022/04/13 04:09:20;;;;;;;20.98;11.93;;;;;;;15.53;63.87;101404.63;4907623;28;20090;-58
2022/04/13 04:11:45;;;;;;;23.48;12.02;;;;;;;15.50;63.77;101404.59;4921456;28;20049;-59
2022/04/13 04:14:10;;;;;;;22.80;11.82;;;;;;;15.41;64.18;101403.72;4926412;28;20573;-58
2022/04/13 04:16:36;;;;;;;20.35;13.00;;;;;;;15.27;64.66;101402.78;4913101;28;20105;-58
2022/04/13 04:19:02;;;;;;;22.73;12.30;;;;;;;15.18;64.74;101408.03;4921000;28;20582;-62
2022/04/13 04:21:27;;;;;;;21.98;12.30;;;;;;;15.13;64.81;101408.88;4925074;28;20047;-59
2022/04/13 04:23:52;;;;;;;21.23;12.43;;;;;;;15.05;65.13;101410.63;4917144;28;20077;-59
2022/04/13 04:26:18;;;;;;;21.15;11.70;;;;;;;14.98;65.05;101420.22;4923447;28;20074;-57
2022/04/13 04:28:43;;;;;;;22.45;11.70;;;;;;;14.90;65.10;101424.53;4909160;28;20388;-58
2022/04/13 04:31:08;;;;;;;19.65;11.80;;;;;;;14.82;65.36;101424.50;4924985;28;20132;-57
2022/04/13 04:33:33;;;;;;;21.60;11.55;;;;;;;14.72;65.65;101435.84;4906281;28;20043;-58
2022/04/13 04:35:59;;;;;;;20.42;11.68;;;;;;;14.68;65.66;101441.94;4931822;28;20466;-58
2022/04/13 04:38:30;;;;;;;17.50;11.10;;;;;;;14.58;66.00;101441.00;4917126;28;20492;-59
2022/04/13 04:40:56;;;;;;;19.88;11.73;;;;;;;14.48;66.34;101441.81;4916945;28;20031;-59
2022/04/13 04:43:21;;;;;;;22.80;12.38;;;;;;;14.41;66.76;101449.63;4924314;28;20050;-59
2022/04/13 04:45:46;;;;;;;26.13;11.82;;;;;;;14.37;66.52;101447.84;4923089;28;20047;-59
2022/04/13 04:48:12;;;;;;;18.15;11.23;;;;;;;14.30;66.87;101454.78;4924652;28;20567;-58
2022/04/13 04:50:38;;;;;;;21.42;10.98;;;;;;;14.26;66.90;101460.88;4923755;28;20047;-58
2022/04/13 04:53:03;;;;;;;21.52;10.95;;;;;;;14.19;67.16;101462.56;4914770;28;21051;-59
2022/04/13 04:55:29;;;;;;;23.83;11.20;;;;;;;14.18;67.10;101468.69;4922339;28;20115;-59
2022/04/13 04:57:54;;;;;;;18.77;11.43;;;;;;;14.23;66.96;101476.56;4924101;28;20043;-59
2022/04/13 05:00:26;;;;;;;19.00;11.90;;;;;;;14.23;67.49;101471.31;4913836;28;20035;-60
2022/04/13 05:02:53;;;;;;;19.42;11.30;;;;;;;14.21;67.72;101473.94;4915222;28;20043;-59
2022/04/13 05:05:19;;;;;;;20.30;11.55;;;;;;;14.25;67.88;101476.59;4923514;28;20415;-59
2022/04/13 05:07:45;;;;;;;20.13;11.15;;;;;;;14.27;67.62;101477.50;4907141;28;20045;-58
2022/04/13 05:10:11;;;;;;;18.90;10.55;;;;;;;14.37;67.35;101476.69;4923434;28;20223;-59
2022/04/13 05:12:45;;;;;;;19.85;10.27;;;;;;;14.34;67.54;101477.53;4917342;28;20206;-58
2022/04/13 05:15:12;;;;;;;18.73;10.63;;;;;;;14.39;67.59;101486.38;4920395;28;20129;-60
2022/04/13 05:17:38;;;;;;;19.17;10.57;;;;;;;14.43;67.25;101482.91;4904129;28;20461;-59
2022/04/13 05:20:05;;;;;;;14.30;9.27;;;;;;;14.50;67.20;101478.56;4921027;28;20043;-60
2022/04/13 05:22:36;;;;;;;17.40;9.48;;;;;;;14.53;67.26;101479.47;4910863;28;20055;-59
2022/04/13 05:25:06;;;;;;;18.23;9.95;;;;;;;14.59;67.10;101484.75;4920938;28;20157;-61
2022/04/13 05:27:31;;;;;;;15.95;9.90;;;;;;;14.65;66.67;101483.91;4914665;28;20047;-59
2022/04/13 05:29:57;;;;;;;15.93;9.52;;;;;;;14.75;66.84;101490.09;4921324;28;20058;-60
2022/04/13 05:32:23;;;;;;;15.10;9.35;;;;;;;14.83;66.27;101494.50;4921152;28;20478;-57
2022/04/13 05:34:48;;;;;;;17.33;9.50;;;;;;;14.90;66.23;101495.44;4909126;28;20070;-59
2022/04/13 05:37:13;;;;;;;16.40;9.18;;;;;;;14.98;65.46;101496.38;4930826;28;20070;-60
2022/04/13 05:39:39;;;;;;;16.45;8.70;;;;;;;15.12;65.66;101504.31;4909881;28;20093;-58
2022/04/13 05:42:04;;;;;;;13.60;8.65;;;;;;;15.27;65.21;101507.00;4925103;28;20172;-60
2022/04/13 05:44:30;;;;;;;16.80;9.35;;;;;;;15.40;64.59;101508.81;4913421;28;20617;-58
2022/04/13 05:46:55;;;;;;;14.27;8.23;;;;;;;15.50;64.17;101504.44;4911146;28;20173;-59
2022/04/13 05:49:21;;;;;;;17.00;8.57;;;;;;;15.61;64.08;101506.28;4925182;28;20162;-59
2022/04/13 05:51:46;;;;;;;15.30;8.63;;;;;;;15.70;63.72;101519.44;4914648;28;20054;-59
2022/04/13 05:54:11;;;;;;;13.75;8.40;;;;;;;15.78;63.27;101527.34;4897146;28;20062;-59
2022/04/13 05:56:37;;;;;;;14.73;8.35;;;;;;;15.81;63.14;101520.34;4913246;28;20058;-58
2022/04/13 05:59:02;;;;;;;14.65;8.27;;;;;;;15.91;63.00;101523.00;4912655;28;20597;-59
2022/04/13 06:01:28;;;;;;;18.63;8.07;;;;;;;16.02;62.76;101524.78;4921271;28;20050;-59
2022/04/13 06:03:53;;;;;;;16.98;7.93;;;;;;;16.18;62.19;101541.44;4895812;28;20595;-58
2022/04/13 06:06:18;;;;;;;14.40;7.93;;;;;;;16.30;62.12;101532.69;4920087;28;20071;-59
2022/04/13 06:08:44;;;;;;;13.32;7.43;;;;;;;16.51;61.10;101536.22;4910093;28;20086;-60
2022/04/13 06:11:09;;;;;;;16.30;7.85;;;;;;;16.52;60.92;101544.97;4911622;28;20635;-60
2022/04/13 06:13:34;;;;;;;13.48;8.25;;;;;;;16.63;61.13;101544.13;4918832;28;20668;-59
2022/04/13 06:16:00;;;;;;;15.43;8.20;;;;;;;16.61;60.88;101545.00;4917565;28;20114;-60
2022/04/13 06:18:25;;;;;;;15.65;8.27;;;;;;;16.63;60.89;101543.25;4920400;28;20109;-60
2022/04/13 06:20:50;;;;;;;17.52;7.90;;;;;;;16.75;60.45;101553.78;4915007;28;20480;-59
2022/04/13 06:23:18;;;;;;;14.48;8.18;;;;;;;16.74;60.18;101552.00;4923384;28;20150;-59
2022/04/13 06:25:43;;;;;;;15.60;8.10;;;;;;;16.83;60.59;101561.66;4922723;28;20574;-60
2022/04/13 06:28:09;;;;;;;14.60;7.93;;;;;;;16.86;59.71;101562.53;4913819;28;20055;-58
2022/04/13 06:30:35;;;;;;;12.55;8.00;;;;;;;16.98;59.44;101566.91;4902971;28;20077;-58
2022/04/13 06:33:05;;;;;;;19.15;7.93;;;;;;;17.07;59.53;101571.28;4901654;28;20132;-59
2022/04/13 06:35:30;;;;;;;14.95;8.32;;;;;;;16.97;59.86;101571.28;4906396;28;20038;-59
2022/04/13 06:37:55;;;;;;;16.40;7.82;;;;;;;17.02;59.62;101574.78;4922647;28;20519;-59
2022/04/13 06:40:21;;;;;;;15.52;7.88;;;;;;;17.02;59.19;101585.31;4913237;28;20043;-60
2022/04/13 06:42:47;;;;;;;18.85;7.78;;;;;;;16.93;59.33;101584.47;4914724;28;20054;-58
2022/04/13 06:45:14;;;;;;;15.52;8.07;;;;;;;16.97;59.83;101597.63;4911272;28;20496;-60
2022/04/13 06:47:41;;;;;;;16.20;7.85;;;;;;;16.96;59.87;101598.50;4919822;28;20632;-59
2022/04/13 06:50:07;;;;;;;16.45;7.85;;;;;;;16.97;59.91;101602.00;4905714;28;20059;-59
2022/04/13 06:52:38;;;;;;;14.57;8.32;;;;;;;17.16;59.71;101609.00;4911742;28;20133;-60
2022/04/13 06:55:05;;;;;;;18.83;8.40;;;;;;;17.23;59.10;101604.59;4922372;28;20047;-58
2022/04/13 06:57:37;;;;;;;17.95;7.90;;;;;;;17.43;58.43;101608.06;4917035;28;20114;-60
2022/04/13 07:00:08;;;;;;;17.15;8.15;;;;;;;17.65;57.57;101611.53;4920134;28;20050;-59
2022/04/13 07:02:39;;;;;;;14.63;7.95;;;;;;;17.83;57.32;101614.09;4915566;28;20054;-58
2022/04/13 07:05:05;;;;;;;17.05;7.90;;;;;;;18.25;56.34;101619.13;4917388;28;20036;-59
2022/04/13 07:07:31;;;;;;;14.65;7.90;;;;;;;18.43;55.67;101618.13;4919745;28;20046;-59
2022/04/13 07:09:56;;;;;;;14.05;8.18;;;;;;;18.75;54.58;101617.03;4911299;28;20379;-58
2022/04/13 07:12:22;;;;;;;21.90;8.07;;;;;;;18.93;54.05;101620.41;4918689;28;20082;-58
2022/04/13 07:14:47;;;;;;;19.20;8.50;;;;;;;19.04;53.03;101622.94;4915580;28;20081;-59
2022/04/13 07:17:13;;;;;;;14.98;8.70;;;;;;;18.77;53.82;101624.09;4918300;28;20043;-58
2022/04/13 07:19:38;;;;;;;19.02;8.70;;;;;;;18.47;54.76;101625.16;4918960;28;20069;-60
2022/04/13 07:22:04;;;;;;;17.70;8.85;;;;;;;18.31;55.00;101633.19;4920345;28;20054;-59
2022/04/13 07:24:30;;;;;;;20.98;9.02;;;;;;;18.34;54.77;101635.81;4921561;28;20056;-58
2022/04/13 07:26:55;;;;;;;16.77;9.20;;;;;;;18.00;55.61;101624.56;4905929;28;20214;-59
2022/04/13 07:29:21;;;;;;;14.93;8.73;;;;;;;17.97;56.31;101632.50;4914143;28;20145;-58
2022/04/13 07:31:46;;;;;;;16.55;8.95;;;;;;;18.01;56.14;101643.03;4915184;28;20047;-57
2022/04/13 07:34:12;;;;;;;17.77;8.85;;;;;;;18.18;55.76;101633.25;4908255;28;20055;-60
2022/04/13 07:36:40;;;;;;;17.77;8.68;;;;;;;18.15;56.36;101643.84;4909290;28;20049;-57
2022/04/13 07:39:06;;;;;;;14.45;8.82;;;;;;;18.30;55.84;101650.78;4911543;28;20142;-59
2022/04/13 07:41:32;;;;;;;17.23;8.50;;;;;;;18.51;55.41;101655.06;4915144;28;20380;-57
2022/04/13 07:44:01;;;;;;;15.15;8.50;;;;;;;18.55;55.50;101659.44;4918547;28;20494;-57
2022/04/13 07:46:27;;;;;;;17.08;8.40;;;;;;;18.70;54.39;101672.56;4892819;28;20052;-58
2022/04/13 07:48:53;;;;;;;17.77;8.77;;;;;;;18.79;53.88;101664.56;4896833;28;20040;-58
2022/04/13 07:51:18;;;;;;;19.88;9.05;;;;;;;18.72;54.05;101667.28;4920825;28;20398;-58
2022/04/13 07:53:44;;;;;;;16.75;8.38;;;;;;;18.55;55.33;101670.88;4919507;28;20062;-59
2022/04/13 07:56:09;;;;;;;20.13;8.27;;;;;;;18.40;54.69;101670.09;4918618;28;20054;-59
2022/04/13 07:58:35;;;;;;;18.70;8.02;;;;;;;18.42;54.17;101671.81;4917152;28;20294;-59
2022/04/13 08:01:00;;;;;;;17.77;7.63;;;;;;;18.28;54.99;101676.31;4914769;28;20518;-59
2022/04/13 08:03:26;;;;;;;19.83;8.10;;;;;;;18.27;54.99;101676.31;4916441;28;20053;-58
2022/04/13 08:05:51;;;;;;;18.00;8.02;;;;;;;18.10;55.89;101673.78;4924171;28;20061;-59
2022/04/13 08:08:16;;;;;;;16.15;7.95;;;;;;;18.08;56.14;101678.19;4923930;28;20904;-58
2022/04/13 08:10:42;;;;;;;17.42;8.43;;;;;;;18.10;56.54;101671.16;4915565;28;20054;-59
2022/04/13 08:13:07;;;;;;;16.38;8.15;;;;;;;18.16;55.76;101674.63;4922847;28;20047;-60
2022/04/13 08:15:33;;;;;;;15.55;8.10;;;;;;;18.24;55.08;101677.19;4923906;28;20113;-57
2022/04/13 08:17:58;;;;;;;21.15;7.90;;;;;;;18.27;54.79;101669.28;4922221;28;20398;-59
2022/04/13 08:20:23;;;;;;;15.10;7.57;;;;;;;18.16;55.36;101686.94;4921529;28;20490;-59
2022/04/13 08:22:49;;;;;;;18.58;7.63;;;;;;;18.10;55.77;101695.78;4911355;28;20047;-59
2022/04/13 08:25:14;;;;;;;14.73;7.43;;;;;;;18.24;54.83;101699.19;4922415;28;20114;-58
2022/04/13 08:27:40;;;;;;;12.40;6.55;;;;;;;18.41;54.72;101706.19;4909500;28;20050;-58
2022/04/13 08:30:17;;;;;;;16.58;7.35;;;;;;;18.31;55.02;101700.06;4908728;28;20055;-59
2022/04/13 08:32:42;;;;;;;14.38;7.50;;;;;;;18.47;55.57;101700.84;4911268;28;20043;-58
2022/04/13 08:35:10;;;;;;;18.33;8.10;;;;;;;18.58;54.74;101704.34;4913637;28;20102;-58
2022/04/13 08:37:36;;;;;;;19.77;8.10;;;;;;;18.68;54.76;101705.13;4920153;28;20050;-59
2022/04/13 08:40:02;;;;;;;17.83;8.48;;;;;;;18.68;54.51;101708.66;4926653;28;20046;-59
2022/04/13 08:42:47;;;;;;;19.50;9.85;;;;;;;18.60;55.17;101706.06;4925292;28;20105;-59
2022/04/13 08:45:24;;;;;;;22.73;10.73;;;;;;;18.48;55.38;101695.53;4922061;28;20031;-57
2022/04/13 08:48:00;;;;;;;19.40;10.05;;;;;;;18.65;54.53;101706.06;4920247;28;20239;-59
2022/04/13 08:50:28;;;;;;;23.15;10.55;;;;;;;18.59;54.24;101700.81;4917206;28;20169;-59
2022/04/13 08:52:58;;;;;;;19.63;10.27;;;;;;;18.46;54.88;101692.06;4918237;28;20582;-59
2022/04/13 08:55:24;;;;;;;22.38;10.40;;;;;;;18.24;55.43;101699.19;4923784;28;20317;-58
2022/04/13 08:58:02;;;;;;;18.10;9.82;;;;;;;18.39;54.87;101706.19;4921866;28;20052;-58
2022/04/13 09:00:31;;;;;;;24.45;11.05;;;;;;;18.37;55.38;101710.56;4917112;28;20407;-59
2022/04/13 09:03:03;;;;;;;20.30;10.68;;;;;;;18.40;55.29;101718.50;4910139;28;20047;-59
2022/04/13 09:05:31;;;;;;;20.00;10.35;;;;;;;18.50;55.57;101724.59;4923455;28;20138;-58
2022/04/13 09:08:11;;;;;;;19.05;10.40;;;;;;;18.55;54.55;101731.63;4914200;28;20061;-57
2022/04/13 09:10:36;;;;;;;16.70;9.60;;;;;;;18.60;54.40;101723.72;4919758;28;20047;-58
2022/04/13 09:13:02;;;;;;;19.58;9.43;;;;;;;18.70;54.37;101730.66;4918210;28;20049;-59
2022/04/13 09:15:28;;;;;;;20.55;9.98;;;;;;;18.77;54.31;101748.25;4916583;28;20848;-58
2022/04/13 09:17:55;;;;;;;17.42;9.20;;;;;;;18.80;53.98;101745.56;4920294;28;20122;-58
2022/04/13 09:20:20;;;;;;;19.40;9.55;;;;;;;18.84;54.20;101752.59;4922810;28;20142;-59
2022/04/13 09:22:49;;;;;;;18.63;9.32;;;;;;;18.90;54.35;101754.31;4915690;28;20051;-59
2022/04/13 09:25:15;;;;;;;17.20;9.40;;;;;;;18.98;54.14;101760.41;4917475;28;21053;-59
2022/04/13 09:27:40;;;;;;;17.92;8.88;;;;;;;19.11;53.88;101766.50;4917277;28;20479;-59
2022/04/13 09:30:06;;;;;;;15.52;8.32;;;;;;;19.24;53.10;101765.50;4912744;28;20043;-59
2022/04/13 09:32:32;;;;;;;16.17;7.95;;;;;;;19.44;52.38;101759.16;4923939;28;20051;-59
2022/04/13 09:34:59;;;;;;;15.23;8.13;;;;;;;19.23;52.73;101755.81;4908246;28;20746;-59
2022/04/13 09:37:25;;;;;;;18.10;7.90;;;;;;;19.30;52.37;101766.34;4914598;28;20039;-60
2022/04/13 09:39:51;;;;;;;18.17;8.10;;;;;;;19.29;53.28;101782.22;4923130;28;20514;-58
2022/04/13 09:42:17;;;;;;;15.20;8.05;;;;;;;19.39;52.57;101779.47;4923997;28;20319;-59
2022/04/13 09:44:43;;;;;;;19.52;8.73;;;;;;;19.34;52.47;101783.03;4912890;28;20043;-60
2022/04/13 09:47:12;;;;;;;16.45;8.27;;;;;;;19.02;53.23;101780.66;4923136;28;20529;-59
2022/04/13 09:49:53;;;;;;;21.08;8.43;;;;;;;18.95;53.87;101784.22;4919418;28;20059;-59
2022/04/13 09:52:39;;;;;;;14.00;7.60;;;;;;;18.97;53.23;101782.44;4915119;28;20315;-58
2022/04/13 09:55:05;;;;;;;14.00;7.80;;;;;;;18.71;53.76;101779.09;4913706;28;20069;-60
2022/04/13 09:57:31;;;;;;;16.92;7.88;;;;;;;18.66;54.48;101786.19;4912995;28;20055;-58
2022/04/13 09:59:59;;;;;;;18.08;7.63;;;;;;;18.72;54.70;101786.13;4921209;28;20055;-58
2022/04/13 10:02:39;;;;;;;15.32;7.20;;;;;;;18.67;54.47;101786.13;4922333;28;20635;-59
2022/04/13 10:05:07;;;;;;;13.63;6.90;;;;;;;18.78;54.02;101791.38;4918362;28;20059;-59
2022/04/13 10:07:33;;;;;;;14.40;7.20;;;;;;;18.55;54.76;101792.38;4914311;28;20070;-58
2022/04/13 10:09:59;;;;;;;13.98;7.22;;;;;;;18.60;54.34;101784.44;4917777;28;20053;-58
2022/04/13 10:12:24;;;;;;;18.05;7.43;;;;;;;18.70;53.61;101799.34;4913100;28;20047;-59
2022/04/13 10:14:50;;;;;;;14.45;7.03;;;;;;;18.67;54.30;101799.34;4905251;28;20066;-58
2022/04/13 10:17:20;;;;;;;14.48;7.13;;;;;;;18.55;55.42;101802.06;4915942;28;20043;-59
2022/04/13 10:19:54;;;;;;;19.48;7.70;;;;;;;18.51;55.35;101803.81;4917240;28;20051;-60
2022/04/13 10:22:19;;;;;;;20.40;7.82;;;;;;;18.58;55.17;101808.22;4924680;28;20047;-58
2022/04/13 10:24:44;;;;;;;16.38;7.75;;;;;;;18.57;55.85;101800.28;4914508;28;20031;-59
2022/04/13 10:27:24;;;;;;;21.75;8.00;;;;;;;18.61;55.56;101804.66;4895566;28;20122;-59
2022/04/13 10:29:50;;;;;;;16.75;8.88;;;;;;;18.64;55.13;101807.31;4922263;28;20047;-59
2022/04/13 10:32:17;;;;;;;15.68;8.88;;;;;;;18.57;55.41;101806.47;4923479;28;20099;-59
2022/04/13 10:34:45;;;;;;;19.80;8.80;;;;;;;18.66;55.21;101804.66;4914450;28;20035;-59
2022/04/13 10:37:12;;;;;;;19.10;8.45;;;;;;;18.88;54.02;101801.88;4910612;28;20064;-59
2022/04/13 10:39:38;;;;;;;19.75;8.98;;;;;;;19.01;54.54;101802.69;4915764;28;20067;-59
2022/04/13 10:42:06;;;;;;;14.32;9.07;;;;;;;19.00;54.34;101809.75;4920911;28;20043;-58
2022/04/13 10:44:34;;;;;;;18.15;9.45;;;;;;;19.19;54.38;101807.84;4919038;28;20043;-59
2022/04/13 10:47:05;;;;;;;19.27;9.50;;;;;;;19.19;54.02;101807.84;4906898;28;22276;-60
2022/04/13 10:49:58;;;;;;;15.60;9.07;;;;;;;19.45;53.56;101818.22;4911073;28;20463;-58
2022/04/13 10:52:40;;;;;;;16.88;8.50;;;;;;;19.81;52.56;101814.41;4911111;28;20073;-59
2022/04/13 10:55:10;;;;;;;14.93;8.57;;;;;;;19.95;52.42;101815.13;4919979;28;20054;-58
2022/04/13 10:57:45;;;;;;;17.90;8.93;;;;;;;19.78;52.05;101817.94;4920508;28;20179;-59
2022/04/13 11:00:11;;;;;;;18.17;9.30;;;;;;;19.82;52.27;101817.03;4915623;28;20053;-61
2022/04/13 11:02:46;;;;;;;15.82;9.32;;;;;;;20.09;51.41;101820.28;4895473;28;20113;-59
2022/04/13 11:05:12;;;;;;;17.92;9.32;;;;;;;20.21;51.27;101818.38;4918950;28;20047;-58
2022/04/13 11:07:39;;;;;;;21.60;8.88;;;;;;;20.24;50.76;101807.78;4913824;28;20130;-58
2022/04/13 11:10:10;;;;;;;16.67;9.05;;;;;;;20.50;49.92;101812.75;4917437;28;20113;-60
2022/04/13 11:12:37;;;;;;;17.20;8.80;;;;;;;20.37;50.32;101815.59;4917315;28;20109;-59